Terminal Aerodrome Forecast
Issued by NWS

Home | Current Version | Previous Version | Text Only | Print | Product List | Glossary On
Versions: 1 2 3 4 5 6 7 8 9 10 11 12 13 14 15 16 17 18 19 20 21 22 23 24
000
FTUS45 KGJT 231738
TAFVEL
TAF
KVEL 231738Z 2318/2418 15003KT P6SM FEW100
     FM231900 26008KT P6SM FEW150
     FM232300 28008G18KT P6SM SCT200
     FM240300 33010KT P6SM SKC
     FM241500 16004KT P6SM SKC=

USA.gov is the U.S. government's official web portal to all federal, state and local government web resources and services.